createdAt,value
2022-10-22T00:00:03.000Z,13.3
2022-10-22T00:03:36.000Z,14.2
2022-10-22T00:07:08.000Z,13.7
2022-10-22T00:10:41.000Z,13.5
2022-10-22T00:14:14.000Z,11.3
2022-10-22T00:17:46.000Z,11
2022-10-22T00:20:37.000Z,12.2
2022-10-22T00:24:10.000Z,13
2022-10-22T00:27:43.000Z,12.8
2022-10-22T00:31:15.000Z,12.9
2022-10-22T00:34:48.000Z,14.1
2022-10-22T00:38:21.000Z,13.4
2022-10-22T00:41:53.000Z,13.4
2022-10-22T00:45:26.000Z,14.5
2022-10-22T00:48:59.000Z,13.8
2022-10-22T00:52:31.000Z,14.9
2022-10-22T00:56:05.000Z,15
2022-10-22T00:58:56.000Z,12.8
2022-10-22T01:02:29.000Z,14.3
2022-10-22T01:06:01.000Z,13.8
2022-10-22T01:09:34.000Z,13.8
2022-10-22T01:13:07.000Z,15.3
2022-10-22T01:16:39.000Z,16.6
2022-10-22T01:20:12.000Z,15.4
2022-10-22T01:23:45.000Z,15.2
2022-10-22T01:27:17.000Z,15.6
2022-10-22T01:30:50.000Z,14
2022-10-22T01:34:23.000Z,13.7
2022-10-22T01:37:14.000Z,14.1
2022-10-22T01:40:46.000Z,13.2
2022-10-22T01:44:19.000Z,12.2
2022-10-22T01:47:52.000Z,12.1
2022-10-22T01:51:24.000Z,11.8
2022-10-22T01:54:57.000Z,9.9
2022-10-22T01:58:30.000Z,10.2
2022-10-22T02:02:02.000Z,9.6
2022-10-22T02:05:35.000Z,10.3
2022-10-22T02:09:07.000Z,11.8
2022-10-22T02:12:40.000Z,11.9
2022-10-22T02:15:31.000Z,10.5
2022-10-22T02:19:04.000Z,10.9
2022-10-22T02:22:36.000Z,9
2022-10-22T02:26:09.000Z,9.4
2022-10-22T02:29:42.000Z,8.6
2022-10-22T02:33:14.000Z,8.9
2022-10-22T02:36:47.000Z,9.9
2022-10-22T02:40:19.000Z,9.2
2022-10-22T02:43:52.000Z,10.2
2022-10-22T02:47:24.000Z,10.6
2022-10-22T02:50:57.000Z,11.1
2022-10-22T02:53:48.000Z,10
2022-10-22T02:57:21.000Z,9.3
2022-10-22T03:00:53.000Z,8.7
2022-10-22T03:04:26.000Z,6.6
2022-10-22T03:07:59.000Z,5.9
2022-10-22T03:11:31.000Z,5.8
2022-10-22T03:15:04.000Z,4.6
2022-10-22T03:18:37.000Z,4.3
2022-10-22T03:22:09.000Z,3.6
2022-10-22T03:25:42.000Z,2.9
2022-10-22T03:29:15.000Z,2.8
2022-10-22T03:32:06.000Z,2.2
2022-10-22T03:35:39.000Z,2.4
2022-10-22T03:39:11.000Z,2
2022-10-22T03:42:44.000Z,1.8
2022-10-22T03:46:16.000Z,1.9
2022-10-22T03:49:49.000Z,1.9
2022-10-22T03:53:22.000Z,2.1
2022-10-22T03:56:54.000Z,2.1
2022-10-22T04:00:27.000Z,2
2022-10-22T04:03:59.000Z,1.8
2022-10-22T04:07:32.000Z,1.5
2022-10-22T04:10:24.000Z,1.6
2022-10-22T04:13:56.000Z,1.6
2022-10-22T04:17:29.000Z,1.9
2022-10-22T04:21:02.000Z,1.9
2022-10-22T04:24:35.000Z,1.5
2022-10-22T04:28:07.000Z,2.1
2022-10-22T04:31:40.000Z,1.6
2022-10-22T04:35:13.000Z,1.6
2022-10-22T04:38:45.000Z,1.5
2022-10-22T04:42:18.000Z,3.2
2022-10-22T04:45:51.000Z,2.1
2022-10-22T04:48:42.000Z,2
2022-10-22T04:52:15.000Z,2.1
2022-10-22T04:55:47.000Z,1.4
2022-10-22T04:59:20.000Z,1.5
2022-10-22T05:02:53.000Z,1.5
2022-10-22T05:06:25.000Z,1.3
2022-10-22T05:09:58.000Z,1.2
2022-10-22T05:13:30.000Z,1
2022-10-22T05:17:03.000Z,1.2
2022-10-22T05:20:36.000Z,1.2
2022-10-22T05:24:08.000Z,1.2
2022-10-22T05:26:59.000Z,1.4
2022-10-22T05:30:32.000Z,1.4
2022-10-22T05:34:04.000Z,1.9
2022-10-22T05:37:37.000Z,1.9
2022-10-22T05:41:10.000Z,2.2
2022-10-22T05:44:42.000Z,3
2022-10-22T05:48:21.000Z,3.6
2022-10-22T05:51:53.000Z,4.5
2022-10-22T05:55:26.000Z,3.7
2022-10-22T05:58:59.000Z,4.9
2022-10-22T06:02:31.000Z,5.9
2022-10-22T06:05:23.000Z,5.2
2022-10-22T06:08:56.000Z,3.8
2022-10-22T06:12:28.000Z,3.6
2022-10-22T06:16:01.000Z,3.8
2022-10-22T06:19:34.000Z,3.8
2022-10-22T06:23:06.000Z,4.7
2022-10-22T06:26:43.000Z,4.9
2022-10-22T06:30:16.000Z,5.5
2022-10-22T06:33:49.000Z,6.4
2022-10-22T06:37:21.000Z,4.8
2022-10-22T06:40:54.000Z,5.2
2022-10-22T06:43:45.000Z,4.7
2022-10-22T06:47:17.000Z,4.9
2022-10-22T06:50:50.000Z,6.4
2022-10-22T06:54:23.000Z,4.8
2022-10-22T06:57:55.000Z,6.4
2022-10-22T07:01:28.000Z,7.2
2022-10-22T07:05:01.000Z,7.2
2022-10-22T07:08:33.000Z,6.2
2022-10-22T07:12:06.000Z,7.1
2022-10-22T07:15:39.000Z,6.8
2022-10-22T07:19:12.000Z,6.3
2022-10-22T07:22:03.000Z,9
2022-10-22T07:25:35.000Z,8.2
2022-10-22T07:29:10.000Z,7.8
2022-10-22T07:32:42.000Z,8
2022-10-22T07:36:15.000Z,7.6
2022-10-22T07:39:48.000Z,7.9
2022-10-22T07:43:20.000Z,9
2022-10-22T07:46:53.000Z,8
2022-10-22T07:50:26.000Z,8.2
2022-10-22T07:53:58.000Z,7
2022-10-22T07:57:31.000Z,7
2022-10-22T08:00:23.000Z,7.2
2022-10-22T08:03:56.000Z,8.4
2022-10-22T08:07:28.000Z,7.2
2022-10-22T08:11:01.000Z,7.8
2022-10-22T08:14:34.000Z,7.1
2022-10-22T08:18:06.000Z,8
2022-10-22T08:21:39.000Z,7.6
2022-10-22T08:25:12.000Z,8.2
2022-10-22T08:28:44.000Z,7.8
2022-10-22T08:32:17.000Z,8
2022-10-22T08:35:50.000Z,7.3
2022-10-22T08:38:41.000Z,7.1
2022-10-22T08:42:13.000Z,7.8
2022-10-22T08:45:46.000Z,7.5
2022-10-22T08:49:21.000Z,6.5
2022-10-22T08:52:54.000Z,6.9
2022-10-22T08:56:26.000Z,7
2022-10-22T08:59:59.000Z,6.7
2022-10-22T09:03:31.000Z,6.8
2022-10-22T09:07:10.000Z,5.5
2022-10-22T09:10:42.000Z,5.7
2022-10-22T09:14:19.000Z,5.7
2022-10-22T09:17:10.000Z,5.6
2022-10-22T09:20:43.000Z,5
2022-10-22T09:24:15.000Z,4.9
2022-10-22T09:27:48.000Z,4.5
2022-10-22T09:31:21.000Z,4.5
2022-10-22T09:34:54.000Z,4.7
2022-10-22T09:38:26.000Z,4.4
2022-10-22T09:41:59.000Z,4.2
2022-10-22T09:45:32.000Z,4
2022-10-22T09:49:04.000Z,4
2022-10-22T09:52:37.000Z,4
2022-10-22T09:55:28.000Z,3.9
2022-10-22T09:59:01.000Z,3.8
2022-10-22T10:02:33.000Z,3.6
2022-10-22T10:06:08.000Z,3.7
2022-10-22T10:09:42.000Z,4.1
2022-10-22T10:13:14.000Z,4.1
2022-10-22T10:16:47.000Z,3.8
2022-10-22T10:20:20.000Z,3.7
2022-10-22T10:23:52.000Z,3.3
2022-10-22T10:27:25.000Z,2.9
2022-10-22T10:30:58.000Z,2.9
2022-10-22T10:33:49.000Z,2.7
2022-10-22T10:37:21.000Z,2.7
2022-10-22T10:40:54.000Z,3.1
2022-10-22T10:44:26.000Z,5.3
2022-10-22T10:47:59.000Z,7.5
2022-10-22T10:51:32.000Z,3.2
2022-10-22T10:55:04.000Z,2.8
2022-10-22T10:58:38.000Z,3.9
2022-10-22T11:02:10.000Z,4.4
2022-10-22T11:05:43.000Z,2.6
2022-10-22T11:09:32.000Z,2.8
2022-10-22T11:12:23.000Z,2.6
2022-10-22T11:15:56.000Z,2.5
2022-10-22T11:19:29.000Z,5.8
2022-10-22T11:23:17.000Z,2.5
2022-10-22T11:26:51.000Z,4.3
2022-10-22T11:30:23.000Z,2.4
2022-10-22T11:33:56.000Z,3
2022-10-22T11:37:46.000Z,2.3
2022-10-22T11:41:19.000Z,2.8
2022-10-22T11:44:52.000Z,2.4
2022-10-22T11:48:25.000Z,2.3
2022-10-22T11:51:16.000Z,2
2022-10-22T11:54:49.000Z,2.3
2022-10-22T11:58:21.000Z,2
2022-10-22T12:01:54.000Z,2.2
2022-10-22T12:05:26.000Z,2.1
2022-10-22T12:08:59.000Z,1.8
2022-10-22T12:12:32.000Z,1.9
2022-10-22T12:16:05.000Z,1.7
2022-10-22T12:19:40.000Z,1.8
2022-10-22T12:23:12.000Z,1.8
2022-10-22T12:26:45.000Z,1.5
2022-10-22T12:29:36.000Z,1.8
2022-10-22T12:33:09.000Z,1.7
2022-10-22T12:36:42.000Z,1.7
2022-10-22T12:40:14.000Z,1.9
2022-10-22T12:43:47.000Z,1.8
2022-10-22T12:47:20.000Z,1.9
2022-10-22T12:50:52.000Z,1.6
2022-10-22T12:54:25.000Z,1.7
2022-10-22T12:57:57.000Z,1.5
2022-10-22T13:01:30.000Z,1.8
2022-10-22T13:05:03.000Z,1.5
2022-10-22T13:07:54.000Z,1.7
2022-10-22T13:11:29.000Z,1.9
2022-10-22T13:15:02.000Z,1.8
2022-10-22T13:18:34.000Z,1.8
2022-10-22T13:22:07.000Z,1.7
2022-10-22T13:25:40.000Z,1.5
2022-10-22T13:29:12.000Z,1.4
2022-10-22T13:32:45.000Z,1.4
2022-10-22T13:36:17.000Z,1.3
2022-10-22T13:39:50.000Z,1.5
2022-10-22T13:43:23.000Z,1.9
2022-10-22T13:46:14.000Z,1.4
2022-10-22T13:49:46.000Z,1.4
2022-10-22T13:53:22.000Z,1.4
2022-10-22T13:56:54.000Z,1.4
2022-10-22T14:00:27.000Z,1.5
2022-10-22T14:04:00.000Z,1.4
2022-10-22T14:07:32.000Z,1.1
2022-10-22T14:11:06.000Z,1.4
2022-10-22T14:14:39.000Z,1.3
2022-10-22T14:18:11.000Z,1.1
2022-10-22T14:21:44.000Z,2.1
2022-10-22T14:24:35.000Z,5
2022-10-22T14:28:07.000Z,1.4
2022-10-22T14:31:40.000Z,1.4
2022-10-22T14:35:13.000Z,3.1
2022-10-22T14:38:45.000Z,1.3
2022-10-22T14:42:18.000Z,1.4
2022-10-22T14:45:50.000Z,1.1
2022-10-22T14:49:23.000Z,1.1
2022-10-22T14:52:56.000Z,1.2
2022-10-22T15:00:02.000Z,1.7
2022-10-22T15:02:53.000Z,1.8
2022-10-22T15:06:29.000Z,1.7
2022-10-22T15:10:02.000Z,1.4
2022-10-22T15:13:34.000Z,1.6
2022-10-22T15:17:07.000Z,1.9
2022-10-22T15:20:40.000Z,1.4
2022-10-22T15:24:12.000Z,1.6
2022-10-22T15:27:45.000Z,1.5
2022-10-22T15:31:24.000Z,1.7
2022-10-22T15:34:57.000Z,1.5
2022-10-22T15:38:29.000Z,1.2
2022-10-22T15:41:20.000Z,1.6
2022-10-22T15:44:53.000Z,1.6
2022-10-22T15:48:31.000Z,1.3
2022-10-22T15:52:04.000Z,1.7
2022-10-22T15:55:37.000Z,1.8
2022-10-22T15:59:09.000Z,1.4
2022-10-22T16:02:42.000Z,1.5
2022-10-22T16:06:15.000Z,1.9
2022-10-22T16:09:47.000Z,1.9
2022-10-22T16:13:20.000Z,2.2
2022-10-22T16:16:53.000Z,2
2022-10-22T16:19:44.000Z,1.6
2022-10-22T16:23:17.000Z,1.6
2022-10-22T16:26:49.000Z,1.8
2022-10-22T16:30:22.000Z,1.9
2022-10-22T16:33:55.000Z,1.9
2022-10-22T16:37:27.000Z,1.8
2022-10-22T16:41:00.000Z,1.9
2022-10-22T16:44:32.000Z,1.8
2022-10-22T16:48:05.000Z,1.6
2022-10-22T16:51:38.000Z,1.7
2022-10-22T16:55:10.000Z,1.4
2022-10-22T16:58:01.000Z,1.9
2022-10-22T17:01:34.000Z,1.6
2022-10-22T17:05:07.000Z,1.7
2022-10-22T17:08:39.000Z,1.8
2022-10-22T17:12:12.000Z,1.5
2022-10-22T17:15:45.000Z,2.2
2022-10-22T17:19:18.000Z,2.2
2022-10-22T17:22:50.000Z,1.7
2022-10-22T17:26:23.000Z,2.2
2022-10-22T17:29:55.000Z,2.1
2022-10-22T17:33:28.000Z,2.4
2022-10-22T17:36:19.000Z,2
2022-10-22T17:39:57.000Z,2
2022-10-22T17:43:29.000Z,4.9
2022-10-22T17:47:02.000Z,2.8
2022-10-22T17:50:34.000Z,2.5
2022-10-22T17:54:10.000Z,2.4
2022-10-22T17:57:43.000Z,2.5
2022-10-22T18:01:16.000Z,2.1
2022-10-22T18:04:49.000Z,2.1
2022-10-22T18:08:21.000Z,2
2022-10-22T18:11:54.000Z,3
2022-10-22T18:14:45.000Z,2.8
2022-10-22T18:18:18.000Z,2.6
2022-10-22T18:21:50.000Z,3.2
2022-10-22T18:25:23.000Z,2.4
2022-10-22T18:28:55.000Z,2.3
2022-10-22T18:32:28.000Z,2
2022-10-22T18:36:00.000Z,2
2022-10-22T18:39:33.000Z,3.4
2022-10-22T18:43:06.000Z,4.8
2022-10-22T18:46:38.000Z,3.5
2022-10-22T18:50:11.000Z,3.2
2022-10-22T18:53:02.000Z,3
2022-10-22T18:56:35.000Z,3.1
2022-10-22T19:00:07.000Z,2.4
2022-10-22T19:03:40.000Z,2.8
2022-10-22T19:07:13.000Z,2.6
2022-10-22T19:10:49.000Z,2.8
2022-10-22T19:14:22.000Z,3.5
2022-10-22T19:17:55.000Z,3.5
2022-10-22T19:21:27.000Z,2.8
2022-10-22T19:25:00.000Z,2.6
2022-10-22T19:28:37.000Z,3.1
2022-10-22T19:31:28.000Z,2.7
2022-10-22T19:35:01.000Z,2.6
2022-10-22T19:38:33.000Z,2.7
2022-10-22T19:42:06.000Z,2.8
2022-10-22T19:45:38.000Z,2.1
2022-10-22T19:49:11.000Z,2.4
2022-10-22T19:52:48.000Z,2.3
2022-10-22T19:56:20.000Z,2
2022-10-22T19:59:53.000Z,2
2022-10-22T20:03:26.000Z,2.1
2022-10-22T20:06:58.000Z,2.1
2022-10-22T20:09:50.000Z,2.1
2022-10-22T20:13:22.000Z,1.9
2022-10-22T20:16:55.000Z,2.1
2022-10-22T20:20:28.000Z,2.6
2022-10-22T20:24:00.000Z,2.7
2022-10-22T20:27:33.000Z,2.5
2022-10-22T20:31:06.000Z,2
2022-10-22T20:34:39.000Z,2.5
2022-10-22T20:38:12.000Z,2.1
2022-10-22T20:41:44.000Z,2
2022-10-22T20:45:17.000Z,2.2
2022-10-22T20:48:08.000Z,2.4
2022-10-22T20:51:41.000Z,2.9
2022-10-22T20:55:15.000Z,2.4
2022-10-22T20:58:48.000Z,2
2022-10-22T21:02:20.000Z,2
2022-10-22T21:05:53.000Z,2.3
2022-10-22T21:09:26.000Z,2
2022-10-22T21:12:58.000Z,2.2
2022-10-22T21:16:31.000Z,2
2022-10-22T21:23:36.000Z,2.2
2022-10-22T21:26:27.000Z,2.4
2022-10-22T21:30:00.000Z,2.1
2022-10-22T21:33:32.000Z,2
2022-10-22T21:37:05.000Z,2.5
2022-10-22T21:40:37.000Z,2.3
2022-10-22T21:44:10.000Z,2.3
2022-10-22T21:47:42.000Z,2.2
2022-10-22T21:51:15.000Z,2
2022-10-22T21:54:48.000Z,2
2022-10-22T21:58:20.000Z,2.2
2022-10-22T22:01:53.000Z,2
2022-10-22T22:04:49.000Z,2.1
2022-10-22T22:08:22.000Z,2.2
2022-10-22T22:11:54.000Z,2.2
2022-10-22T22:15:27.000Z,2.2
2022-10-22T22:19:00.000Z,2
2022-10-22T22:22:32.000Z,2.5
2022-10-22T22:26:05.000Z,2.2
2022-10-22T22:29:38.000Z,2.2
2022-10-22T22:33:11.000Z,2.5
2022-10-22T22:36:44.000Z,1.9
2022-10-22T22:40:16.000Z,2
2022-10-22T22:43:07.000Z,2.4
2022-10-22T22:46:40.000Z,2.2
2022-10-22T22:50:13.000Z,2.2
2022-10-22T22:53:45.000Z,2.1
2022-10-22T22:57:18.000Z,2.4
2022-10-22T23:00:51.000Z,2.3
2022-10-22T23:04:23.000Z,2.5
2022-10-22T23:07:56.000Z,2.4
2022-10-22T23:11:29.000Z,2.9
2022-10-22T23:15:01.000Z,2.6
2022-10-22T23:18:34.000Z,2.8
2022-10-22T23:21:25.000Z,2.5
2022-10-22T23:24:58.000Z,2.4
2022-10-22T23:28:31.000Z,2
2022-10-22T23:32:03.000Z,2.3
2022-10-22T23:35:36.000Z,2.5
2022-10-22T23:39:08.000Z,2.4
2022-10-22T23:42:41.000Z,2.3
2022-10-22T23:46:13.000Z,2.8
2022-10-22T23:49:46.000Z,2.9
2022-10-22T23:53:19.000Z,2.3
2022-10-22T23:56:51.000Z,2.5
2022-10-22T23:59:43.000Z,2.2
